メインページ
METAR-TAF:

METAR-TAF

空港 :

ラパス, メキシコ

緯度: 24-04N, 経度: 110-22W, 海抜: 21m

現時点の気象観測

当レポートは34分前の23:44(UTC)に作成
南西の風 8kt
気温 30°C
湿度 52%
気圧 1011 hPa
視程: 16.1km
高度3500ftの雲は散在している, 塔状積雲.

METAR: MMLP 202344Z 22008KT 10SM SCT035TCU 30/19 A2984 RMK SLP103 57005 993 8/200

時間: 18:18 (00:18 UTC)

予報

当レポートは7時間23分前の16:55(UTC)に作成
予報は20日の 18時(UTC)から 21日の 18時(UTC)まで有効
南/南西の風 8kt
視程: 10km
高度3000ftの千切れ雲あり
高度25000ftの千切れ雲あり
21日の 0300時(UTC)から
南/南西の風 5kt
視程: 10km
高度3000ftの雲は散在している
高度25000ftの千切れ雲あり
21日の 1600時(UTC)から
北西の風 8kt
視程: 10km
高度25000ftの千切れ雲あり

TAF: MMLP 201655Z 2018/2118 20008KT P6SM BKN030 BKN250 FM210300 20005KT P6SM SCT030 BKN250 FM211600 31008KT P6SM BKN250

4,000以上の空港の気象観測と天気予報(METAR報とTAF報)

利用可能な観測所は地図上に黄色い丸と赤い丸で示す。

丸の上にカーソルを重ねると観測所名を参照できる。

次にクリックすると気象観測と天気予報を参照できる。

マップの切り替え:黒色「×」印の緑ボタンをクリックして拡大、「-」印の緑ボタンをクリックして縮小、緑色の三角印をクリックして隣りの地図に切り替え


METAR-TAF: